sensor_id;sensor_type;location;lat;lon;timestamp;P1;durP1;ratioP1;P2;durP2;ratioP2
42260;SDS011;27926;48.062;7.474;2022-08-24T05:59:52;2.60;;;2.20;;
42260;SDS011;27926;48.062;7.474;2022-08-24T06:02:18;4.63;;;2.72;;
42260;SDS011;27926;48.062;7.474;2022-08-24T06:04:43;10.35;;;4.63;;
42260;SDS011;27926;48.062;7.474;2022-08-24T06:07:08;7.25;;;3.47;;
42260;SDS011;27926;48.062;7.474;2022-08-24T06:09:33;14.10;;;3.58;;
42260;SDS011;27926;48.062;7.474;2022-08-24T06:11:57;7.80;;;3.83;;
42260;SDS011;27926;48.062;7.474;2022-08-24T06:14:23;5.85;;;3.67;;
42260;SDS011;27926;48.062;7.474;2022-08-24T06:16:48;3.50;;;3.15;;
42260;SDS011;27926;48.062;7.474;2022-08-24T06:19:14;7.95;;;3.30;;
42260;SDS011;27926;48.062;7.474;2022-08-24T06:21:40;7.78;;;3.28;;
42260;SDS011;27926;48.062;7.474;2022-08-24T06:24:06;4.10;;;2.85;;
42260;SDS011;27926;48.062;7.474;2022-08-24T06:26:31;4.47;;;3.10;;
42260;SDS011;27926;48.062;7.474;2022-08-24T06:29:15;5.32;;;2.95;;
42260;SDS011;27926;48.062;7.474;2022-08-24T06:31:42;4.00;;;2.97;;
42260;SDS011;27926;48.062;7.474;2022-08-24T06:34:09;5.03;;;3.45;;
42260;SDS011;27926;48.062;7.474;2022-08-24T06:36:35;7.45;;;3.90;;
42260;SDS011;27926;48.062;7.474;2022-08-24T06:39:00;6.47;;;4.07;;
42260;SDS011;27926;48.062;7.474;2022-08-24T06:41:28;5.50;;;3.67;;
42260;SDS011;27926;48.062;7.474;2022-08-24T06:43:53;6.37;;;3.77;;
42260;SDS011;27926;48.062;7.474;2022-08-24T06:46:17;12.67;;;4.73;;
42260;SDS011;27926;48.062;7.474;2022-08-24T06:48:42;5.20;;;3.37;;
42260;SDS011;27926;48.062;7.474;2022-08-24T06:51:09;6.63;;;3.67;;
42260;SDS011;27926;48.062;7.474;2022-08-24T06:53:35;6.68;;;3.72;;
42260;SDS011;27926;48.062;7.474;2022-08-24T06:56:00;12.02;;;3.22;;
42260;SDS011;27926;48.062;7.474;2022-08-24T06:58:25;4.23;;;3.00;;
42260;SDS011;27926;48.062;7.474;2022-08-24T07:00:51;8.10;;;3.45;;
42260;SDS011;27926;48.062;7.474;2022-08-24T07:03:15;6.30;;;3.50;;
42260;SDS011;27926;48.062;7.474;2022-08-24T07:05:48;10.63;;;3.80;;
42260;SDS011;27926;48.062;7.474;2022-08-24T07:08:13;9.10;;;3.58;;
42260;SDS011;27926;48.062;7.474;2022-08-24T07:10:38;4.47;;;3.20;;
42260;SDS011;27926;48.062;7.474;2022-08-24T07:13:02;6.13;;;3.40;;
42260;SDS011;27926;48.062;7.474;2022-08-24T07:15:27;5.20;;;3.13;;
42260;SDS011;27926;48.062;7.474;2022-08-24T07:17:52;6.80;;;4.13;;
42260;SDS011;27926;48.062;7.474;2022-08-24T07:20:17;10.48;;;3.85;;
42260;SDS011;27926;48.062;7.474;2022-08-24T07:22:42;10.98;;;3.70;;
42260;SDS011;27926;48.062;7.474;2022-08-24T07:25:07;4.65;;;2.83;;
42260;SDS011;27926;48.062;7.474;2022-08-24T07:29:58;8.00;;;3.58;;
42260;SDS011;27926;48.062;7.474;2022-08-24T07:32:22;9.37;;;4.07;;
42260;SDS011;27926;48.062;7.474;2022-08-24T07:34:47;8.17;;;2.83;;
42260;SDS011;27926;48.062;7.474;2022-08-24T07:37:12;11.63;;;2.90;;
42260;SDS011;27926;48.062;7.474;2022-08-24T07:39:36;3.80;;;2.77;;
42260;SDS011;27926;48.062;7.474;2022-08-24T07:42:01;4.97;;;3.13;;
42260;SDS011;27926;48.062;7.474;2022-08-24T07:44:26;5.17;;;2.80;;
42260;SDS011;27926;48.062;7.474;2022-08-24T07:46:53;5.07;;;3.07;;
42260;SDS011;27926;48.062;7.474;2022-08-24T07:49:17;4.85;;;2.88;;
42260;SDS011;27926;48.062;7.474;2022-08-24T07:51:42;5.93;;;3.50;;
42260;SDS011;27926;48.062;7.474;2022-08-24T07:54:07;6.38;;;3.50;;
42260;SDS011;27926;48.062;7.474;2022-08-24T07:56:32;9.73;;;3.30;;
42260;SDS011;27926;48.062;7.474;2022-08-24T07:58:57;5.20;;;3.20;;
42260;SDS011;27926;48.062;7.474;2022-08-24T08:01:22;7.20;;;3.00;;
42260;SDS011;27926;48.062;7.474;2022-08-24T08:03:47;3.07;;;2.60;;
42260;SDS011;27926;48.062;7.474;2022-08-24T08:06:12;4.50;;;2.70;;
42260;SDS011;27926;48.062;7.474;2022-08-24T08:08:37;6.40;;;2.77;;
42260;SDS011;27926;48.062;7.474;2022-08-24T08:11:04;6.45;;;2.55;;
42260;SDS011;27926;48.062;7.474;2022-08-24T08:13:30;4.78;;;2.83;;
42260;SDS011;27926;48.062;7.474;2022-08-24T08:15:55;14.93;;;3.10;;
42260;SDS011;27926;48.062;7.474;2022-08-24T08:18:20;6.43;;;2.85;;
42260;SDS011;27926;48.062;7.474;2022-08-24T08:20:45;7.33;;;3.60;;
42260;SDS011;27926;48.062;7.474;2022-08-24T08:23:10;4.33;;;2.40;;
42260;SDS011;27926;48.062;7.474;2022-08-24T08:26:04;4.30;;;2.78;;
42260;SDS011;27926;48.062;7.474;2022-08-24T08:28:30;4.65;;;2.80;;
42260;SDS011;27926;48.062;7.474;2022-08-24T08:30:56;6.70;;;3.25;;
42260;SDS011;27926;48.062;7.474;2022-08-24T08:33:20;7.57;;;2.60;;
42260;SDS011;27926;48.062;7.474;2022-08-24T08:35:45;5.53;;;2.37;;
42260;SDS011;27926;48.062;7.474;2022-08-24T08:38:10;6.15;;;2.67;;
42260;SDS011;27926;48.062;7.474;2022-08-24T08:43:41;5.10;;;2.97;;
42260;SDS011;27926;48.062;7.474;2022-08-24T08:46:36;6.78;;;2.72;;
42260;SDS011;27926;48.062;7.474;2022-08-24T09:16:30;10.02;;;3.08;;
42260;SDS011;27926;48.062;7.474;2022-08-24T09:32:50;11.10;;;2.55;;
42260;SDS011;27926;48.062;7.474;2022-08-24T09:35:49;6.05;;;1.98;;
42260;SDS011;27926;48.062;7.474;2022-08-24T09:44:55;2.72;;;1.92;;
42260;SDS011;27926;48.062;7.474;2022-08-24T09:56:52;5.47;;;1.88;;
42260;SDS011;27926;48.062;7.474;2022-08-24T10:08:00;5.03;;;1.98;;
42260;SDS011;27926;48.062;7.474;2022-08-24T10:19:31;4.03;;;1.70;;
42260;SDS011;27926;48.062;7.474;2022-08-24T10:30:54;1.17;;;1.08;;
42260;SDS011;27926;48.062;7.474;2022-08-24T10:33:27;2.13;;;1.50;;
42260;SDS011;27926;48.062;7.474;2022-08-24T10:42:04;2.45;;;1.58;;
42260;SDS011;27926;48.062;7.474;2022-08-24T10:50:44;3.30;;;1.48;;
42260;SDS011;27926;48.062;7.474;2022-08-24T10:53:30;8.05;;;1.75;;
42260;SDS011;27926;48.062;7.474;2022-08-24T10:58:39;12.77;;;1.67;;
42260;SDS011;27926;48.062;7.474;2022-08-24T11:01:16;3.67;;;1.77;;
42260;SDS011;27926;48.062;7.474;2022-08-24T11:04:06;5.57;;;2.08;;
42260;SDS011;27926;48.062;7.474;2022-08-24T11:06:43;3.70;;;1.40;;
42260;SDS011;27926;48.062;7.474;2022-08-24T11:09:43;3.90;;;1.83;;
42260;SDS011;27926;48.062;7.474;2022-08-24T11:12:23;3.17;;;1.42;;
42260;SDS011;27926;48.062;7.474;2022-08-24T11:14:51;3.65;;;1.83;;
42260;SDS011;27926;48.062;7.474;2022-08-24T11:17:21;6.40;;;2.08;;
42260;SDS011;27926;48.062;7.474;2022-08-24T11:19:48;5.97;;;1.67;;
42260;SDS011;27926;48.062;7.474;2022-08-24T11:25:14;1.50;;;1.38;;
42260;SDS011;27926;48.062;7.474;2022-08-24T11:27:44;5.05;;;1.98;;
42260;SDS011;27926;48.062;7.474;2022-08-24T11:32:46;5.78;;;1.80;;
42260;SDS011;27926;48.062;7.474;2022-08-24T11:35:28;2.90;;;1.52;;
42260;SDS011;27926;48.062;7.474;2022-08-24T11:43:24;5.60;;;2.03;;
42260;SDS011;27926;48.062;7.474;2022-08-24T11:48:55;4.60;;;1.70;;
42260;SDS011;27926;48.062;7.474;2022-08-24T11:54:39;5.85;;;1.88;;
42260;SDS011;27926;48.062;7.474;2022-08-24T11:57:15;1.77;;;1.25;;
42260;SDS011;27926;48.062;7.474;2022-08-24T12:02:51;2.47;;;1.52;;
42260;SDS011;27926;48.062;7.474;2022-08-24T12:16:19;3.00;;;1.65;;
42260;SDS011;27926;48.062;7.474;2022-08-24T12:21:24;2.97;;;1.25;;
42260;SDS011;27926;48.062;7.474;2022-08-24T12:23:59;1.33;;;1.20;;
42260;SDS011;27926;48.062;7.474;2022-08-24T12:29:13;1.27;;;1.17;;
42260;SDS011;27926;48.062;7.474;2022-08-24T12:34:57;11.07;;;1.50;;
42260;SDS011;27926;48.062;7.474;2022-08-24T12:37:28;1.77;;;1.38;;
42260;SDS011;27926;48.062;7.474;2022-08-24T12:40:07;3.85;;;1.48;;
42260;SDS011;27926;48.062;7.474;2022-08-24T12:43:03;1.02;;;0.93;;
42260;SDS011;27926;48.062;7.474;2022-08-24T12:45:31;5.88;;;1.48;;
42260;SDS011;27926;48.062;7.474;2022-08-24T13:01:30;2.20;;;1.52;;
42260;SDS011;27926;48.062;7.474;2022-08-24T13:06:40;4.55;;;1.80;;
42260;SDS011;27926;48.062;7.474;2022-08-24T13:09:30;3.65;;;1.48;;
42260;SDS011;27926;48.062;7.474;2022-08-24T13:11:58;4.90;;;1.75;;
42260;SDS011;27926;48.062;7.474;2022-08-24T13:14:43;4.35;;;1.70;;
42260;SDS011;27926;48.062;7.474;2022-08-24T13:17:12;3.80;;;1.33;;
42260;SDS011;27926;48.062;7.474;2022-08-24T13:19:42;3.65;;;1.98;;
42260;SDS011;27926;48.062;7.474;2022-08-24T13:29:35;2.30;;;2.03;;
42260;SDS011;27926;48.062;7.474;2022-08-24T13:34:39;3.55;;;1.60;;
42260;SDS011;27926;48.062;7.474;2022-08-24T13:37:14;2.80;;;1.38;;
42260;SDS011;27926;48.062;7.474;2022-08-24T13:56:37;6.57;;;1.20;;
42260;SDS011;27926;48.062;7.474;2022-08-24T14:04:54;2.92;;;1.38;;
42260;SDS011;27926;48.062;7.474;2022-08-24T14:11:06;3.28;;;1.75;;
42260;SDS011;27926;48.062;7.474;2022-08-24T14:14:02;1.88;;;1.52;;
42260;SDS011;27926;48.062;7.474;2022-08-24T14:25:26;3.10;;;1.50;;
42260;SDS011;27926;48.062;7.474;2022-08-24T14:36:14;2.15;;;1.25;;
42260;SDS011;27926;48.062;7.474;2022-08-24T14:41:51;5.80;;;1.40;;
42260;SDS011;27926;48.062;7.474;2022-08-24T14:51:09;2.25;;;1.20;;
42260;SDS011;27926;48.062;7.474;2022-08-24T14:53:58;3.35;;;1.58;;
42260;SDS011;27926;48.062;7.474;2022-08-24T14:59:56;1.30;;;1.10;;
42260;SDS011;27926;48.062;7.474;2022-08-24T15:05:22;2.08;;;1.60;;
42260;SDS011;27926;48.062;7.474;2022-08-24T15:11:07;2.55;;;1.77;;
42260;SDS011;27926;48.062;7.474;2022-08-24T15:13:40;2.97;;;1.65;;
42260;SDS011;27926;48.062;7.474;2022-08-24T15:16:11;10.27;;;1.75;;
42260;SDS011;27926;48.062;7.474;2022-08-24T15:27:01;11.48;;;2.38;;
42260;SDS011;27926;48.062;7.474;2022-08-24T15:29:31;3.70;;;1.38;;
42260;SDS011;27926;48.062;7.474;2022-08-24T15:37:08;3.67;;;1.48;;
42260;SDS011;27926;48.062;7.474;2022-08-24T15:39:33;1.27;;;1.17;;
42260;SDS011;27926;48.062;7.474;2022-08-24T15:42:01;3.33;;;1.45;;
42260;SDS011;27926;48.062;7.474;2022-08-24T15:44:34;2.97;;;1.20;;
42260;SDS011;27926;48.062;7.474;2022-08-24T15:47:00;1.45;;;1.15;;
42260;SDS011;27926;48.062;7.474;2022-08-24T15:49:28;3.65;;;1.30;;
42260;SDS011;27926;48.062;7.474;2022-08-24T15:52:00;1.63;;;1.52;;
42260;SDS011;27926;48.062;7.474;2022-08-24T15:54:33;10.65;;;1.30;;
42260;SDS011;27926;48.062;7.474;2022-08-24T15:57:25;4.15;;;1.10;;
42260;SDS011;27926;48.062;7.474;2022-08-24T15:59:53;3.95;;;1.85;;
42260;SDS011;27926;48.062;7.474;2022-08-24T16:10:34;2.15;;;1.10;;
42260;SDS011;27926;48.062;7.474;2022-08-24T16:15:47;3.38;;;0.85;;
42260;SDS011;27926;48.062;7.474;2022-08-24T16:18:16;2.88;;;1.02;;
42260;SDS011;27926;48.062;7.474;2022-08-24T16:20:43;0.98;;;0.80;;
42260;SDS011;27926;48.062;7.474;2022-08-24T16:23:10;1.60;;;1.00;;
42260;SDS011;27926;48.062;7.474;2022-08-24T16:25:44;2.05;;;0.95;;
42260;SDS011;27926;48.062;7.474;2022-08-24T16:28:11;1.85;;;1.17;;
42260;SDS011;27926;48.062;7.474;2022-08-24T16:30:57;0.73;;;0.73;;
42260;SDS011;27926;48.062;7.474;2022-08-24T16:35:59;1.88;;;0.90;;
42260;SDS011;27926;48.062;7.474;2022-08-24T16:38:27;2.28;;;0.80;;
42260;SDS011;27926;48.062;7.474;2022-08-24T16:40:55;2.13;;;0.80;;
42260;SDS011;27926;48.062;7.474;2022-08-24T16:43:20;1.50;;;0.70;;
42260;SDS011;27926;48.062;7.474;2022-08-24T16:45:45;1.47;;;1.00;;
42260;SDS011;27926;48.062;7.474;2022-08-24T16:48:10;1.93;;;0.80;;
42260;SDS011;27926;48.062;7.474;2022-08-24T16:50:34;2.77;;;0.80;;
42260;SDS011;27926;48.062;7.474;2022-08-24T16:52:59;0.60;;;0.60;;
42260;SDS011;27926;48.062;7.474;2022-08-24T16:55:24;2.70;;;0.80;;
42260;SDS011;27926;48.062;7.474;2022-08-24T16:57:51;4.55;;;1.00;;
42260;SDS011;27926;48.062;7.474;2022-08-24T17:00:16;1.47;;;1.00;;
42260;SDS011;27926;48.062;7.474;2022-08-24T17:02:44;0.90;;;0.60;;
42260;SDS011;27926;48.062;7.474;2022-08-24T17:05:10;0.82;;;0.80;;
42260;SDS011;27926;48.062;7.474;2022-08-24T17:07:35;4.00;;;1.03;;
42260;SDS011;27926;48.062;7.474;2022-08-24T17:10:01;1.17;;;0.63;;
42260;SDS011;27926;48.062;7.474;2022-08-24T17:12:28;1.63;;;0.70;;
42260;SDS011;27926;48.062;7.474;2022-08-24T17:14:54;2.42;;;0.70;;
42260;SDS011;27926;48.062;7.474;2022-08-24T17:17:19;1.70;;;0.83;;
42260;SDS011;27926;48.062;7.474;2022-08-24T17:19:45;5.55;;;0.88;;
42260;SDS011;27926;48.062;7.474;2022-08-24T17:22:11;8.30;;;1.25;;
42260;SDS011;27926;48.062;7.474;2022-08-24T17:24:36;8.53;;;1.13;;
42260;SDS011;27926;48.062;7.474;2022-08-24T17:27:01;3.67;;;1.17;;
42260;SDS011;27926;48.062;7.474;2022-08-24T17:29:26;3.13;;;0.80;;
42260;SDS011;27926;48.062;7.474;2022-08-24T17:31:50;3.77;;;0.83;;
42260;SDS011;27926;48.062;7.474;2022-08-24T17:34:17;1.63;;;0.55;;
42260;SDS011;27926;48.062;7.474;2022-08-24T17:36:46;12.95;;;0.63;;
42260;SDS011;27926;48.062;7.474;2022-08-24T17:39:12;2.45;;;0.60;;
42260;SDS011;27926;48.062;7.474;2022-08-24T17:41:38;1.20;;;0.73;;
42260;SDS011;27926;48.062;7.474;2022-08-24T17:44:03;1.17;;;0.60;;
42260;SDS011;27926;48.062;7.474;2022-08-24T17:46:31;1.40;;;0.55;;
42260;SDS011;27926;48.062;7.474;2022-08-24T17:48:56;2.20;;;0.70;;
42260;SDS011;27926;48.062;7.474;2022-08-24T17:51:21;1.00;;;0.70;;
42260;SDS011;27926;48.062;7.474;2022-08-24T17:53:46;0.87;;;0.40;;
42260;SDS011;27926;48.062;7.474;2022-08-24T17:56:11;4.17;;;0.60;;
42260;SDS011;27926;48.062;7.474;2022-08-24T17:58:40;8.68;;;0.70;;
42260;SDS011;27926;48.062;7.474;2022-08-24T18:01:24;7.60;;;0.63;;
42260;SDS011;27926;48.062;7.474;2022-08-24T18:03:49;0.60;;;0.40;;
42260;SDS011;27926;48.062;7.474;2022-08-24T18:06:14;2.20;;;0.70;;
42260;SDS011;27926;48.062;7.474;2022-08-24T18:08:41;0.40;;;0.40;;
42260;SDS011;27926;48.062;7.474;2022-08-24T18:11:08;2.20;;;0.98;;
42260;SDS011;27926;48.062;7.474;2022-08-24T18:13:33;6.65;;;0.60;;
42260;SDS011;27926;48.062;7.474;2022-08-24T18:16:01;0.50;;;0.50;;
42260;SDS011;27926;48.062;7.474;2022-08-24T18:18:32;5.00;;;0.73;;
42260;SDS011;27926;48.062;7.474;2022-08-24T18:21:08;9.55;;;0.80;;
42260;SDS011;27926;48.062;7.474;2022-08-24T18:23:38;3.13;;;0.80;;
42260;SDS011;27926;48.062;7.474;2022-08-24T18:26:02;2.23;;;0.60;;
42260;SDS011;27926;48.062;7.474;2022-08-24T18:28:30;1.23;;;0.40;;
42260;SDS011;27926;48.062;7.474;2022-08-24T18:30:57;1.80;;;0.80;;
42260;SDS011;27926;48.062;7.474;2022-08-24T18:33:22;2.10;;;0.60;;
42260;SDS011;27926;48.062;7.474;2022-08-24T18:35:53;4.53;;;0.60;;
42260;SDS011;27926;48.062;7.474;2022-08-24T18:38:18;0.90;;;0.50;;
42260;SDS011;27926;48.062;7.474;2022-08-24T18:40:50;1.05;;;0.52;;
42260;SDS011;27926;48.062;7.474;2022-08-24T18:43:15;4.17;;;0.63;;
42260;SDS011;27926;48.062;7.474;2022-08-24T18:45:42;1.10;;;0.52;;
42260;SDS011;27926;48.062;7.474;2022-08-24T18:48:09;1.00;;;0.73;;
42260;SDS011;27926;48.062;7.474;2022-08-24T18:50:36;1.58;;;0.85;;
42260;SDS011;27926;48.062;7.474;2022-08-24T18:53:01;1.98;;;0.73;;
42260;SDS011;27926;48.062;7.474;2022-08-24T18:55:26;1.00;;;0.40;;
42260;SDS011;27926;48.062;7.474;2022-08-24T18:57:51;1.67;;;0.73;;
42260;SDS011;27926;48.062;7.474;2022-08-24T19:00:17;1.10;;;1.00;;
42260;SDS011;27926;48.062;7.474;2022-08-24T19:02:42;0.50;;;0.50;;
42260;SDS011;27926;48.062;7.474;2022-08-24T19:07:36;1.38;;;0.95;;
42260;SDS011;27926;48.062;7.474;2022-08-24T19:10:04;0.73;;;0.73;;
42260;SDS011;27926;48.062;7.474;2022-08-24T19:12:30;2.00;;;0.75;;
42260;SDS011;27926;48.062;7.474;2022-08-24T19:15:01;2.53;;;0.75;;
42260;SDS011;27926;48.062;7.474;2022-08-24T19:17:26;1.65;;;0.77;;
42260;SDS011;27926;48.062;7.474;2022-08-24T19:19:51;6.97;;;1.08;;
42260;SDS011;27926;48.062;7.474;2022-08-24T19:22:18;1.95;;;0.80;;
42260;SDS011;27926;48.062;7.474;2022-08-24T19:24:44;1.92;;;1.38;;
42260;SDS011;27926;48.062;7.474;2022-08-24T19:29:37;1.08;;;0.80;;
42260;SDS011;27926;48.062;7.474;2022-08-24T19:32:02;1.05;;;0.70;;
42260;SDS011;27926;48.062;7.474;2022-08-24T19:34:30;1.07;;;0.73;;
42260;SDS011;27926;48.062;7.474;2022-08-24T19:36:55;2.30;;;0.85;;
42260;SDS011;27926;48.062;7.474;2022-08-24T19:39:19;1.70;;;0.93;;
42260;SDS011;27926;48.062;7.474;2022-08-24T19:41:45;5.65;;;0.80;;
42260;SDS011;27926;48.062;7.474;2022-08-24T19:44:12;2.78;;;0.85;;
42260;SDS011;27926;48.062;7.474;2022-08-24T19:46:57;1.08;;;0.70;;
42260;SDS011;27926;48.062;7.474;2022-08-24T19:49:24;2.03;;;0.88;;
42260;SDS011;27926;48.062;7.474;2022-08-24T19:51:49;1.80;;;0.80;;
42260;SDS011;27926;48.062;7.474;2022-08-24T19:54:14;1.75;;;0.68;;
42260;SDS011;27926;48.062;7.474;2022-08-24T19:56:39;1.42;;;0.90;;
42260;SDS011;27926;48.062;7.474;2022-08-24T19:59:08;2.10;;;0.90;;
42260;SDS011;27926;48.062;7.474;2022-08-24T20:01:43;1.35;;;0.90;;
42260;SDS011;27926;48.062;7.474;2022-08-24T20:04:10;1.92;;;0.80;;
42260;SDS011;27926;48.062;7.474;2022-08-24T20:06:36;2.58;;;0.80;;
42260;SDS011;27926;48.062;7.474;2022-08-24T20:09:03;0.85;;;0.60;;
42260;SDS011;27926;48.062;7.474;2022-08-24T20:11:28;2.53;;;1.00;;
42260;SDS011;27926;48.062;7.474;2022-08-24T20:13:53;1.53;;;0.77;;
42260;SDS011;27926;48.062;7.474;2022-08-24T20:16:18;0.40;;;0.40;;
42260;SDS011;27926;48.062;7.474;2022-08-24T20:21:08;1.30;;;0.80;;
42260;SDS011;27926;48.062;7.474;2022-08-24T20:23:35;1.47;;;0.90;;
42260;SDS011;27926;48.062;7.474;2022-08-24T20:26:04;1.13;;;0.85;;
42260;SDS011;27926;48.062;7.474;2022-08-24T20:28:31;1.75;;;0.70;;
42260;SDS011;27926;48.062;7.474;2022-08-24T20:30:59;3.15;;;0.85;;
42260;SDS011;27926;48.062;7.474;2022-08-24T20:33:24;0.80;;;0.67;;
42260;SDS011;27926;48.062;7.474;2022-08-24T20:35:52;1.58;;;0.70;;
42260;SDS011;27926;48.062;7.474;2022-08-24T20:38:19;3.45;;;0.93;;
42260;SDS011;27926;48.062;7.474;2022-08-24T20:40:45;0.70;;;0.70;;
42260;SDS011;27926;48.062;7.474;2022-08-24T20:59:56;0.77;;;0.77;;
42260;SDS011;27926;48.062;7.474;2022-08-24T21:02:20;2.43;;;0.90;;
42260;SDS011;27926;48.062;7.474;2022-08-24T21:04:45;1.75;;;1.00;;
42260;SDS011;27926;48.062;7.474;2022-08-24T21:07:10;1.02;;;0.88;;
42260;SDS011;27926;48.062;7.474;2022-08-24T21:24:20;1.27;;;0.88;;
42260;SDS011;27926;48.062;7.474;2022-08-24T22:01:57;3.63;;;1.33;;
42260;SDS011;27926;48.062;7.474;2022-08-24T22:26:03;2.13;;;1.30;;
